sensor_id;sensor_type;location;lat;lon;timestamp;pressure;altitude;pressure_sealevel;temperature;humidity
12247;BME280;6186;52.022;4.692;2023-02-01T00:00:17;102121.22;;;7.50;100.00
12247;BME280;6186;52.022;4.692;2023-02-01T00:02:42;102104.59;;;7.51;100.00
12247;BME280;6186;52.022;4.692;2023-02-01T00:05:09;102115.09;;;7.51;100.00
12247;BME280;6186;52.022;4.692;2023-02-01T00:07:35;102119.47;;;7.51;100.00
12247;BME280;6186;52.022;4.692;2023-02-01T00:10:01;102116.84;;;7.51;100.00
12247;BME280;6186;52.022;4.692;2023-02-01T00:12:26;102109.84;;;7.47;100.00
12247;BME280;6186;52.022;4.692;2023-02-01T00:14:51;102117.69;;;7.48;100.00
12247;BME280;6186;52.022;4.692;2023-02-01T00:17:17;102120.31;;;7.47;100.00
12247;BME280;6186;52.022;4.692;2023-02-01T00:19:42;102107.22;;;7.45;100.00
12247;BME280;6186;52.022;4.692;2023-02-01T00:22:07;102116.81;;;7.48;100.00
12247;BME280;6186;52.022;4.692;2023-02-01T00:24:33;102107.16;;;7.42;100.00
12247;BME280;6186;52.022;4.692;2023-02-01T00:26:58;102124.66;;;7.46;100.00
12247;BME280;6186;52.022;4.692;2023-02-01T00:29:23;102117.69;;;7.45;100.00
12247;BME280;6186;52.022;4.692;2023-02-01T00:31:50;102120.31;;;7.45;100.00
12247;BME280;6186;52.022;4.692;2023-02-01T00:34:17;102106.31;;;7.45;100.00
12247;BME280;6186;52.022;4.692;2023-02-01T00:36:43;102124.66;;;7.43;100.00
12247;BME280;6186;52.022;4.692;2023-02-01T00:39:09;102122.00;;;7.42;100.00
12247;BME280;6186;52.022;4.692;2023-02-01T00:41:35;102111.50;;;7.39;100.00
12247;BME280;6186;52.022;4.692;2023-02-01T00:44:00;102111.47;;;7.34;100.00
12247;BME280;6186;52.022;4.692;2023-02-01T00:46:26;102120.25;;;7.39;100.00
12247;BME280;6186;52.022;4.692;2023-02-01T00:48:52;102114.97;;;7.33;100.00
12247;BME280;6186;52.022;4.692;2023-02-01T00:51:21;102124.59;;;7.40;100.00
12247;BME280;6186;52.022;4.692;2023-02-01T00:53:47;102095.78;;;7.39;100.00
12247;BME280;6186;52.022;4.692;2023-02-01T00:56:13;102112.41;;;7.39;100.00
12247;BME280;6186;52.022;4.692;2023-02-01T00:58:39;102103.66;;;7.40;100.00
12247;BME280;6186;52.022;4.692;2023-02-01T01:01:19;102077.41;;;7.30;100.00
12247;BME280;6186;52.022;4.692;2023-02-01T01:03:48;102080.91;;;7.36;100.00
12247;BME280;6186;52.022;4.692;2023-02-01T01:06:17;102078.31;;;7.36;100.00
12247;BME280;6186;52.022;4.692;2023-02-01T01:08:44;102080.06;;;7.39;100.00
12247;BME280;6186;52.022;4.692;2023-02-01T01:11:13;102094.91;;;7.38;100.00
12247;BME280;6186;52.022;4.692;2023-02-01T01:13:39;102077.41;;;7.30;100.00
12247;BME280;6186;52.022;4.692;2023-02-01T01:16:05;102096.63;;;7.36;100.00
12247;BME280;6186;52.022;4.692;2023-02-01T01:18:32;102094.06;;;7.44;100.00
12247;BME280;6186;52.022;4.692;2023-02-01T01:20:58;102082.69;;;7.40;100.00
12247;BME280;6186;52.022;4.692;2023-02-01T01:23:24;102089.72;;;7.46;100.00
12247;BME280;6186;52.022;4.692;2023-02-01T01:25:50;102097.63;;;7.47;100.00
12247;BME280;6186;52.022;4.692;2023-02-01T01:28:16;102087.16;;;7.49;100.00
12247;BME280;6186;52.022;4.692;2023-02-01T01:30:41;102094.13;;;7.48;100.00
12247;BME280;6186;52.022;4.692;2023-02-01T01:33:07;102096.72;;;7.45;100.00
12247;BME280;6186;52.022;4.692;2023-02-01T01:35:32;102101.13;;;7.51;100.00
12247;BME280;6186;52.022;4.692;2023-02-01T01:37:59;102083.63;;;7.45;100.00
12247;BME280;6186;52.022;4.692;2023-02-01T01:40:25;102087.16;;;7.49;100.00
12247;BME280;6186;52.022;4.692;2023-02-01T01:42:50;102091.53;;;7.53;100.00
12247;BME280;6186;52.022;4.692;2023-02-01T01:45:31;102085.41;;;7.52;100.00
12247;BME280;6186;52.022;4.692;2023-02-01T01:48:11;102085.38;;;7.48;100.00
12247;BME280;6186;52.022;4.692;2023-02-01T01:50:43;102105.50;;;7.52;100.00
12247;BME280;6186;52.022;4.692;2023-02-01T01:53:12;102099.47;;;7.60;100.00
12247;BME280;6186;52.022;4.692;2023-02-01T01:55:42;102089.00;;;7.63;100.00
12247;BME280;6186;52.022;4.692;2023-02-01T01:58:17;102081.13;;;7.65;100.00
12247;BME280;6186;52.022;4.692;2023-02-01T02:00:44;102085.53;;;7.66;100.00
12247;BME280;6186;52.022;4.692;2023-02-01T02:03:39;102086.38;;;7.67;100.00
12247;BME280;6186;52.022;4.692;2023-02-01T02:06:12;102074.16;;;7.67;100.00
12247;BME280;6186;52.022;4.692;2023-02-01T02:08:40;102071.53;;;7.67;100.00
12247;BME280;6186;52.022;4.692;2023-02-01T02:11:05;102077.66;;;7.66;100.00
12247;BME280;6186;52.022;4.692;2023-02-01T02:13:38;102062.78;;;7.67;100.00
12247;BME280;6186;52.022;4.692;2023-02-01T02:21:11;102074.16;;;7.69;100.00
12247;BME280;6186;52.022;4.692;2023-02-01T02:26:25;102049.72;;;7.70;100.00
12247;BME280;6186;52.022;4.692;2023-02-01T02:37:16;102052.31;;;7.67;100.00
12247;BME280;6186;52.022;4.692;2023-02-01T02:40:16;102062.81;;;7.68;100.00
12247;BME280;6186;52.022;4.692;2023-02-01T02:42:58;102056.69;;;7.69;100.00
12247;BME280;6186;52.022;4.692;2023-02-01T02:46:25;102056.69;;;7.71;100.00
12247;BME280;6186;52.022;4.692;2023-02-01T02:51:55;102059.34;;;7.72;100.00
12247;BME280;6186;52.022;4.692;2023-02-01T02:54:45;102056.75;;;7.75;100.00
12247;BME280;6186;52.022;4.692;2023-02-01T02:57:23;102042.75;;;7.76;100.00
12247;BME280;6186;52.022;4.692;2023-02-01T03:00:15;102026.13;;;7.71;100.00
12247;BME280;6186;52.022;4.692;2023-02-01T03:03:00;102020.91;;;7.74;100.00
12247;BME280;6186;52.022;4.692;2023-02-01T03:05:46;102024.41;;;7.76;100.00
12247;BME280;6186;52.022;4.692;2023-02-01T03:08:18;102020.94;;;7.76;100.00
12247;BME280;6186;52.022;4.692;2023-02-01T03:13:46;102009.56;;;7.75;100.00
12247;BME280;6186;52.022;4.692;2023-02-01T03:16:24;102016.53;;;7.75;100.00
12247;BME280;6186;52.022;4.692;2023-02-01T03:19:05;102019.16;;;7.73;100.00
12247;BME280;6186;52.022;4.692;2023-02-01T03:21:37;102013.91;;;7.72;100.00
12247;BME280;6186;52.022;4.692;2023-02-01T03:26:38;102020.91;;;7.68;100.00
12247;BME280;6186;52.022;4.692;2023-02-01T03:29:18;102015.63;;;7.65;100.00
12247;BME280;6186;52.022;4.692;2023-02-01T03:31:47;102005.97;;;7.58;100.00
12247;BME280;6186;52.022;4.692;2023-02-01T03:34:13;102010.38;;;7.60;100.00
12247;BME280;6186;52.022;4.692;2023-02-01T03:36:48;102017.34;;;7.58;100.00
12247;BME280;6186;52.022;4.692;2023-02-01T03:39:33;102014.69;;;7.55;100.00
12247;BME280;6186;52.022;4.692;2023-02-01T03:42:04;102019.06;;;7.56;100.00
12247;BME280;6186;52.022;4.692;2023-02-01T03:45:01;102016.47;;;7.56;100.00
12247;BME280;6186;52.022;4.692;2023-02-01T03:47:35;102030.44;;;7.58;100.00
12247;BME280;6186;52.022;4.692;2023-02-01T03:50:05;102014.69;;;7.57;100.00
12247;BME280;6186;52.022;4.692;2023-02-01T03:52:39;102017.34;;;7.58;100.00
12247;BME280;6186;52.022;4.692;2023-02-01T03:55:07;102023.44;;;7.54;100.00
12247;BME280;6186;52.022;4.692;2023-02-01T03:57:40;102032.19;;;7.56;100.00
12247;BME280;6186;52.022;4.692;2023-02-01T04:00:21;101993.63;;;7.40;100.00
12247;BME280;6186;52.022;4.692;2023-02-01T04:02:50;102017.31;;;7.55;100.00
12247;BME280;6186;52.022;4.692;2023-02-01T04:05:16;102021.69;;;7.58;100.00
12247;BME280;6186;52.022;4.692;2023-02-01T04:07:42;102026.06;;;7.57;100.00
12247;BME280;6186;52.022;4.692;2023-02-01T04:10:08;102024.31;;;7.58;100.00
12247;BME280;6186;52.022;4.692;2023-02-01T04:12:34;102023.44;;;7.59;100.00
12247;BME280;6186;52.022;4.692;2023-02-01T04:14:59;102023.47;;;7.60;100.00
12247;BME280;6186;52.022;4.692;2023-02-01T04:17:24;102026.94;;;7.61;100.00
12247;BME280;6186;52.022;4.692;2023-02-01T04:19:50;102038.31;;;7.63;100.00
12247;BME280;6186;52.022;4.692;2023-02-01T04:22:15;102037.47;;;7.63;100.00
12247;BME280;6186;52.022;4.692;2023-02-01T04:24:41;102031.34;;;7.67;100.00
12247;BME280;6186;52.022;4.692;2023-02-01T04:27:06;102028.72;;;7.67;100.00
12247;BME280;6186;52.022;4.692;2023-02-01T04:29:31;102029.59;;;7.69;100.00
12247;BME280;6186;52.022;4.692;2023-02-01T04:31:57;102029.66;;;7.70;100.00
12247;BME280;6186;52.022;4.692;2023-02-01T04:34:22;102019.16;;;7.70;100.00
12247;BME280;6186;52.022;4.692;2023-02-01T04:36:50;102021.75;;;7.69;100.00
12247;BME280;6186;52.022;4.692;2023-02-01T04:39:15;102018.28;;;7.68;100.00
12247;BME280;6186;52.022;4.692;2023-02-01T04:41:40;102023.47;;;7.65;100.00
12247;BME280;6186;52.022;4.692;2023-02-01T04:44:06;102020.84;;;7.62;100.00
12247;BME280;6186;52.022;4.692;2023-02-01T04:46:31;102032.19;;;7.61;100.00
12247;BME280;6186;52.022;4.692;2023-02-01T04:48:56;102012.06;;;7.57;100.00
12247;BME280;6186;52.022;4.692;2023-02-01T04:51:22;102019.94;;;7.55;100.00
12247;BME280;6186;52.022;4.692;2023-02-01T04:53:47;102010.34;;;7.53;100.00
12247;BME280;6186;52.022;4.692;2023-02-01T04:56:13;102021.66;;;7.50;100.00
12247;BME280;6186;52.022;4.692;2023-02-01T04:58:38;102022.50;;;7.49;100.00
12247;BME280;6186;52.022;4.692;2023-02-01T05:01:05;102016.41;;;7.49;100.00
12247;BME280;6186;52.022;4.692;2023-02-01T05:03:33;102013.78;;;7.47;100.00
12247;BME280;6186;52.022;4.692;2023-02-01T05:05:59;102010.28;;;7.47;100.00
12247;BME280;6186;52.022;4.692;2023-02-01T05:08:25;101997.16;;;7.42;100.00
12247;BME280;6186;52.022;4.692;2023-02-01T05:10:52;102010.28;;;7.45;100.00
12247;BME280;6186;52.022;4.692;2023-02-01T05:13:17;102015.50;;;7.44;100.00
12247;BME280;6186;52.022;4.692;2023-02-01T05:16:01;102011.97;;;7.42;100.00
12247;BME280;6186;52.022;4.692;2023-02-01T05:18:27;102019.84;;;7.39;100.00
12247;BME280;6186;52.022;4.692;2023-02-01T05:20:52;102019.81;;;7.36;100.00
12247;BME280;6186;52.022;4.692;2023-02-01T05:23:17;102022.44;;;7.36;100.00
12247;BME280;6186;52.022;4.692;2023-02-01T05:25:43;102025.03;;;7.34;100.00
12247;BME280;6186;52.022;4.692;2023-02-01T05:28:08;102024.13;;;7.32;100.00
12247;BME280;6186;52.022;4.692;2023-02-01T05:30:34;102033.75;;;7.32;100.00
12247;BME280;6186;52.022;4.692;2023-02-01T05:33:00;102030.25;;;7.31;100.00
12247;BME280;6186;52.022;4.692;2023-02-01T05:35:26;102036.38;;;7.30;100.00
12247;BME280;6186;52.022;4.692;2023-02-01T05:37:51;102031.09;;;7.29;100.00
12247;BME280;6186;52.022;4.692;2023-02-01T05:40:16;102024.13;;;7.29;100.00
12247;BME280;6186;52.022;4.692;2023-02-01T05:42:42;102016.28;;;7.29;100.00
12247;BME280;6186;52.022;4.692;2023-02-01T05:45:08;102025.88;;;7.29;100.00
12247;BME280;6186;52.022;4.692;2023-02-01T05:47:33;102033.75;;;7.30;100.00
12247;BME280;6186;52.022;4.692;2023-02-01T05:49:58;102025.00;;;7.30;100.00
12247;BME280;6186;52.022;4.692;2023-02-01T05:52:24;102029.38;;;7.32;100.00
12247;BME280;6186;52.022;4.692;2023-02-01T05:54:49;102027.63;;;7.33;100.00
12247;BME280;6186;52.022;4.692;2023-02-01T05:57:15;102034.66;;;7.34;100.00
12247;BME280;6186;52.022;4.692;2023-02-01T05:59:40;102039.84;;;7.32;100.00
12247;BME280;6186;52.022;4.692;2023-02-01T06:02:13;102042.50;;;7.34;100.00
12247;BME280;6186;52.022;4.692;2023-02-01T06:04:38;102037.22;;;7.32;100.00
12247;BME280;6186;52.022;4.692;2023-02-01T06:07:04;102045.09;;;7.32;100.00
12247;BME280;6186;52.022;4.692;2023-02-01T06:09:32;102038.13;;;7.33;100.00
12247;BME280;6186;52.022;4.692;2023-02-01T06:11:57;102046.84;;;7.33;100.00
12247;BME280;6186;52.022;4.692;2023-02-01T06:14:23;102034.66;;;7.34;100.00
12247;BME280;6186;52.022;4.692;2023-02-01T06:16:49;102045.13;;;7.34;100.00
12247;BME280;6186;52.022;4.692;2023-02-01T06:19:14;102046.84;;;7.33;100.00
12247;BME280;6186;52.022;4.692;2023-02-01T06:21:40;102049.47;;;7.35;100.00
12247;BME280;6186;52.022;4.692;2023-02-01T06:24:05;102053.00;;;7.35;100.00
12247;BME280;6186;52.022;4.692;2023-02-01T06:26:31;102041.63;;;7.33;100.00
12247;BME280;6186;52.022;4.692;2023-02-01T06:28:56;102044.28;;;7.39;100.00
12247;BME280;6186;52.022;4.692;2023-02-01T06:31:22;102047.81;;;7.41;100.00
12247;BME280;6186;52.022;4.692;2023-02-01T06:33:48;102043.44;;;7.43;100.00
12247;BME280;6186;52.022;4.692;2023-02-01T06:36:14;102050.44;;;7.44;100.00
12247;BME280;6186;52.022;4.692;2023-02-01T06:38:41;102056.56;;;7.46;100.00
12247;BME280;6186;52.022;4.692;2023-02-01T06:41:06;102054.81;;;7.47;100.00
12247;BME280;6186;52.022;4.692;2023-02-01T06:43:32;102044.31;;;7.42;100.00
12247;BME280;6186;52.022;4.692;2023-02-01T06:46:03;102049.59;;;7.45;100.00
12247;BME280;6186;52.022;4.692;2023-02-01T06:48:29;102050.44;;;7.46;100.00
12247;BME280;6186;52.022;4.692;2023-02-01T06:50:55;102049.59;;;7.45;100.00
12247;BME280;6186;52.022;4.692;2023-02-01T06:53:20;102039.09;;;7.45;100.00
12247;BME280;6186;52.022;4.692;2023-02-01T06:55:56;102022.44;;;7.39;100.00
12247;BME280;6186;52.022;4.692;2023-02-01T06:58:22;102032.09;;;7.44;100.00
12247;BME280;6186;52.022;4.692;2023-02-01T07:00:47;102028.56;;;7.39;100.00
12247;BME280;6186;52.022;4.692;2023-02-01T07:03:13;102034.72;;;7.43;100.00
12247;BME280;6186;52.022;4.692;2023-02-01T07:05:39;102034.69;;;7.40;100.00
12247;BME280;6186;52.022;4.692;2023-02-01T07:08:05;102036.44;;;7.39;100.00
12247;BME280;6186;52.022;4.692;2023-02-01T07:10:30;102043.41;;;7.40;100.00
12247;BME280;6186;52.022;4.692;2023-02-01T07:12:57;102035.53;;;7.39;100.00
12247;BME280;6186;52.022;4.692;2023-02-01T07:15:22;102049.53;;;7.39;100.00
12247;BME280;6186;52.022;4.692;2023-02-01T07:17:48;102047.75;;;7.38;100.00
12247;BME280;6186;52.022;4.692;2023-02-01T07:20:14;102050.41;;;7.40;100.00
12247;BME280;6186;52.022;4.692;2023-02-01T07:22:40;102043.41;;;7.39;100.00
12247;BME280;6186;52.022;4.692;2023-02-01T07:25:06;102034.69;;;7.40;100.00
12247;BME280;6186;52.022;4.692;2023-02-01T07:27:34;102046.88;;;7.36;100.00
12247;BME280;6186;52.022;4.692;2023-02-01T07:29:59;102049.53;;;7.42;100.00
12247;BME280;6186;52.022;4.692;2023-02-01T07:32:27;102055.66;;;7.44;100.00
12247;BME280;6186;52.022;4.692;2023-02-01T07:34:52;102052.16;;;7.44;100.00
12247;BME280;6186;52.022;4.692;2023-02-01T07:37:17;102053.94;;;7.45;100.00
12247;BME280;6186;52.022;4.692;2023-02-01T07:39:43;102056.56;;;7.45;100.00
12247;BME280;6186;52.022;4.692;2023-02-01T07:42:08;102055.66;;;7.46;100.00
12247;BME280;6186;52.022;4.692;2023-02-01T07:44:34;102060.91;;;7.44;100.00
12247;BME280;6186;52.022;4.692;2023-02-01T07:46:59;102063.56;;;7.49;100.00
12247;BME280;6186;52.022;4.692;2023-02-01T07:49:25;102072.28;;;7.49;100.00
12247;BME280;6186;52.022;4.692;2023-02-01T07:51:50;102068.81;;;7.50;100.00
12247;BME280;6186;52.022;4.692;2023-02-01T07:54:16;102074.06;;;7.50;100.00
12247;BME280;6186;52.022;4.692;2023-02-01T07:56:41;102081.91;;;7.50;100.00
12247;BME280;6186;52.022;4.692;2023-02-01T07:59:07;102082.81;;;7.52;100.00
12247;BME280;6186;52.022;4.692;2023-02-01T08:01:33;102082.81;;;7.54;100.00
12247;BME280;6186;52.022;4.692;2023-02-01T08:04:03;102082.81;;;7.55;100.00
12247;BME280;6186;52.022;4.692;2023-02-01T08:06:31;102074.94;;;7.57;100.00
12247;BME280;6186;52.022;4.692;2023-02-01T08:08:57;102091.56;;;7.59;100.00
12247;BME280;6186;52.022;4.692;2023-02-01T08:11:24;102073.25;;;7.60;100.00
12247;BME280;6186;52.022;4.692;2023-02-01T08:13:50;102082.88;;;7.64;100.00
12247;BME280;6186;52.022;4.692;2023-02-01T08:16:18;102061.94;;;7.68;100.00
12247;BME280;6186;52.022;4.692;2023-02-01T08:18:44;102071.56;;;7.70;100.00
12247;BME280;6186;52.022;4.692;2023-02-01T08:21:15;102054.06;;;7.66;100.00
12247;BME280;6186;52.022;4.692;2023-02-01T08:23:42;102052.34;;;7.74;100.00
12247;BME280;6186;52.022;4.692;2023-02-01T08:26:21;102066.38;;;7.78;100.00
12247;BME280;6186;52.022;4.692;2023-02-01T08:28:49;102060.28;;;7.85;100.00
12247;BME280;6186;52.022;4.692;2023-02-01T08:31:17;102045.50;;;7.94;100.00
12247;BME280;6186;52.022;4.692;2023-02-01T08:33:47;102052.50;;;8.03;100.00
12247;BME280;6186;52.022;4.692;2023-02-01T08:36:14;102040.31;;;8.11;100.00
12247;BME280;6186;52.022;4.692;2023-02-01T08:38:40;102046.44;;;8.16;100.00
12247;BME280;6186;52.022;4.692;2023-02-01T08:41:10;102040.34;;;8.18;100.00
12247;BME280;6186;52.022;4.692;2023-02-01T08:43:35;102044.72;;;8.21;100.00
12247;BME280;6186;52.022;4.692;2023-02-01T08:46:02;102049.97;;;8.24;100.00
12247;BME280;6186;52.022;4.692;2023-02-01T08:48:27;102053.53;;;8.24;100.00
12247;BME280;6186;52.022;4.692;2023-02-01T08:50:53;102046.53;;;8.25;100.00
12247;BME280;6186;52.022;4.692;2023-02-01T08:53:18;102053.50;;;8.27;100.00
12247;BME280;6186;52.022;4.692;2023-02-01T08:55:45;102038.66;;;8.31;100.00
12247;BME280;6186;52.022;4.692;2023-02-01T08:58:11;102037.81;;;8.35;100.00
12247;BME280;6186;52.022;4.692;2023-02-01T09:00:36;102038.72;;;8.40;100.00
12247;BME280;6186;52.022;4.692;2023-02-01T09:03:01;102015.09;;;8.46;100.00
12247;BME280;6186;52.022;4.692;2023-02-01T09:05:27;102028.25;;;8.55;100.00
12247;BME280;6186;52.022;4.692;2023-02-01T09:07:53;102023.00;;;8.64;100.00
12247;BME280;6186;52.022;4.692;2023-02-01T09:10:18;102019.53;;;8.83;100.00
12247;BME280;6186;52.022;4.692;2023-02-01T09:12:44;102006.41;;;8.92;100.00
12247;BME280;6186;52.022;4.692;2023-02-01T09:15:09;102021.28;;;8.99;100.00
12247;BME280;6186;52.022;4.692;2023-02-01T09:17:35;102014.28;;;9.01;100.00
12247;BME280;6186;52.022;4.692;2023-02-01T09:20:00;102014.28;;;8.98;100.00
12247;BME280;6186;52.022;4.692;2023-02-01T09:22:26;102018.69;;;9.02;100.00
12247;BME280;6186;52.022;4.692;2023-02-01T09:24:52;102017.78;;;8.94;100.00
12247;BME280;6186;52.022;4.692;2023-02-01T09:27:18;102052.81;;;8.87;100.00
12247;BME280;6186;52.022;4.692;2023-02-01T09:29:43;102030.91;;;8.82;100.00
12247;BME280;6186;52.022;4.692;2023-02-01T09:32:08;102030.91;;;8.73;100.00
12247;BME280;6186;52.022;4.692;2023-02-01T09:34:34;102037.91;;;8.74;100.00
12247;BME280;6186;52.022;4.692;2023-02-01T09:36:59;102037.03;;;8.74;100.00
12247;BME280;6186;52.022;4.692;2023-02-01T09:39:25;102051.03;;;8.74;100.00
12247;BME280;6186;52.022;4.692;2023-02-01T09:47:26;102031.75;;;8.63;100.00
12247;BME280;6186;52.022;4.692;2023-02-01T09:50:00;102046.59;;;8.61;100.00
12247;BME280;6186;52.022;4.692;2023-02-01T09:52:45;102044.88;;;8.60;100.00
12247;BME280;6186;52.022;4.692;2023-02-01T09:55:20;102058.00;;;8.60;100.00
12247;BME280;6186;52.022;4.692;2023-02-01T09:57:55;102053.63;;;8.59;100.00
12247;BME280;6186;52.022;4.692;2023-02-01T10:00:27;102054.50;;;8.55;100.00
12247;BME280;6186;52.022;4.692;2023-02-01T10:02:55;102048.38;;;8.53;100.00
12247;BME280;6186;52.022;4.692;2023-02-01T10:05:42;102057.09;;;8.49;100.00
12247;BME280;6186;52.022;4.692;2023-02-01T10:08:33;102057.94;;;8.46;100.00
12247;BME280;6186;52.022;4.692;2023-02-01T10:14:18;102056.19;;;8.42;100.00
12247;BME280;6186;52.022;4.692;2023-02-01T10:17:16;102050.94;;;8.42;100.00
12247;BME280;6186;52.022;4.692;2023-02-01T10:20:07;102037.81;;;8.41;100.00
12247;BME280;6186;52.022;4.692;2023-02-01T10:22:43;102049.22;;;8.43;100.00
12247;BME280;6186;52.022;4.692;2023-02-01T10:25:41;102050.09;;;8.42;100.00
12247;BME280;6186;52.022;4.692;2023-02-01T10:28:14;102054.44;;;8.43;100.00
12247;BME280;6186;52.022;4.692;2023-02-01T10:30:46;102048.34;;;8.44;100.00
12247;BME280;6186;52.022;4.692;2023-02-01T10:33:24;102046.56;;;8.44;100.00
12247;BME280;6186;52.022;4.692;2023-02-01T10:35:55;102027.34;;;8.41;100.00
12247;BME280;6186;52.022;4.692;2023-02-01T10:38:28;102034.38;;;8.49;100.00
12247;BME280;6186;52.022;4.692;2023-02-01T10:40:59;102044.84;;;8.52;100.00
12247;BME280;6186;52.022;4.692;2023-02-01T10:43:26;102043.97;;;8.53;100.00
12247;BME280;6186;52.022;4.692;2023-02-01T10:45:51;102030.88;;;8.61;100.00
12247;BME280;6186;52.022;4.692;2023-02-01T10:48:16;102037.88;;;8.59;100.00
12247;BME280;6186;52.022;4.692;2023-02-01T10:50:53;102037.00;;;8.68;100.00
12247;BME280;6186;52.022;4.692;2023-02-01T10:53:41;102037.03;;;8.72;100.00
12247;BME280;6186;52.022;4.692;2023-02-01T10:56:10;102034.41;;;8.75;100.00
12247;BME280;6186;52.022;4.692;2023-02-01T10:58:42;102028.25;;;8.75;100.00
12247;BME280;6186;52.022;4.692;2023-02-01T11:01:15;102023.91;;;8.74;100.00
12247;BME280;6186;52.022;4.692;2023-02-01T11:03:42;102034.41;;;8.74;100.00
12247;BME280;6186;52.022;4.692;2023-02-01T11:08:56;102034.41;;;8.75;100.00
12247;BME280;6186;52.022;4.692;2023-02-01T11:11:22;102037.88;;;8.73;100.00
12247;BME280;6186;52.022;4.692;2023-02-01T11:13:59;102035.28;;;8.70;100.00
12247;BME280;6186;52.022;4.692;2023-02-01T11:16:36;102028.25;;;8.64;100.00
12247;BME280;6186;52.022;4.692;2023-02-01T11:19:02;102033.53;;;8.70;100.00
12247;BME280;6186;52.022;4.692;2023-02-01T11:21:28;102016.00;;;8.71;100.00
12247;BME280;6186;52.022;4.692;2023-02-01T11:23:54;102023.91;;;8.72;100.00
12247;BME280;6186;52.022;4.692;2023-02-01T11:26:23;102030.91;;;8.73;100.00
12247;BME280;6186;52.022;4.692;2023-02-01T11:29:03;102021.28;;;8.77;100.00
12247;BME280;6186;52.022;4.692;2023-02-01T11:31:29;102028.28;;;8.78;100.00
12247;BME280;6186;52.022;4.692;2023-02-01T11:33:59;102026.53;;;8.80;100.00
12247;BME280;6186;52.022;4.692;2023-02-01T11:36:28;102028.28;;;8.79;100.00
12247;BME280;6186;52.022;4.692;2023-02-01T11:39:20;102033.53;;;8.82;100.00
12247;BME280;6186;52.022;4.692;2023-02-01T11:42:04;102023.06;;;8.84;100.00
12247;BME280;6186;52.022;4.692;2023-02-01T11:44:36;102005.53;;;8.81;100.00
12247;BME280;6186;52.022;4.692;2023-02-01T11:49:47;102012.53;;;8.93;100.00
12247;BME280;6186;52.022;4.692;2023-02-01T12:03:41;102008.16;;;9.11;100.00
12247;BME280;6186;52.022;4.692;2023-02-01T12:06:30;101998.50;;;9.10;100.00
12247;BME280;6186;52.022;4.692;2023-02-01T12:17:45;102014.28;;;8.98;100.00
12247;BME280;6186;52.022;4.692;2023-02-01T12:29:29;101995.03;;;8.96;100.00
12247;BME280;6186;52.022;4.692;2023-02-01T12:43:42;101966.97;;;9.42;100.00
12247;BME280;6186;52.022;4.692;2023-02-01T12:46:22;101984.41;;;9.66;100.00
12247;BME280;6186;52.022;4.692;2023-02-01T12:49:08;101981.78;;;9.69;100.00
12247;BME280;6186;52.022;4.692;2023-02-01T12:51:38;101980.00;;;9.74;100.00
12247;BME280;6186;52.022;4.692;2023-02-01T12:57:04;101975.53;;;9.95;100.00
12247;BME280;6186;52.022;4.692;2023-02-01T12:59:38;101992.16;;;10.09;100.00
12247;BME280;6186;52.022;4.692;2023-02-01T13:02:26;101986.88;;;10.09;100.00
12247;BME280;6186;52.022;4.692;2023-02-01T13:05:01;101979.91;;;10.01;100.00
12247;BME280;6186;52.022;4.692;2023-02-01T13:07:38;101981.69;;;9.87;100.00
12247;BME280;6186;52.022;4.692;2023-02-01T13:10:18;101974.72;;;9.77;100.00
12247;BME280;6186;52.022;4.692;2023-02-01T13:12:53;101987.88;;;9.75;100.00
12247;BME280;6186;52.022;4.692;2023-02-01T13:15:26;101983.47;;;9.79;100.00
12247;BME280;6186;52.022;4.692;2023-02-01T13:17:56;101969.47;;;9.80;100.00
12247;BME280;6186;52.022;4.692;2023-02-01T13:20:30;101967.72;;;9.76;100.00
12247;BME280;6186;52.022;4.692;2023-02-01T13:23:49;101983.50;;;9.70;100.00
12247;BME280;6186;52.022;4.692;2023-02-01T13:25:51;101980.91;;;9.61;100.00
12247;BME280;6186;52.022;4.692;2023-02-01T13:28:18;101984.44;;;9.55;100.00
12247;BME280;6186;52.022;4.692;2023-02-01T13:40:06;101988.88;;;9.32;100.00
12247;BME280;6186;52.022;4.692;2023-02-01T13:42:35;101993.25;;;9.30;100.00
12247;BME280;6186;52.022;4.692;2023-02-01T13:45:14;101996.75;;;9.30;100.00
12247;BME280;6186;52.022;4.692;2023-02-01T13:47:42;101975.75;;;9.24;100.00
12247;BME280;6186;52.022;4.692;2023-02-01T13:52:44;102002.91;;;9.26;100.00
12247;BME280;6186;52.022;4.692;2023-02-01T13:57:46;101994.13;;;9.32;100.00
12247;BME280;6186;52.022;4.692;2023-02-01T14:00:23;102001.13;;;9.31;100.00
12247;BME280;6186;52.022;4.692;2023-02-01T14:03:11;101992.38;;;9.32;100.00
12247;BME280;6186;52.022;4.692;2023-02-01T14:13:30;101986.22;;;9.35;100.00
12247;BME280;6186;52.022;4.692;2023-02-01T14:23:45;101987.09;;;9.40;100.00
12247;BME280;6186;52.022;4.692;2023-02-01T14:26:14;101992.38;;;9.40;100.00
12247;BME280;6186;52.022;4.692;2023-02-01T14:28:45;101990.63;;;9.40;100.00
12247;BME280;6186;52.022;4.692;2023-02-01T14:31:19;101985.38;;;9.40;100.00
12247;BME280;6186;52.022;4.692;2023-02-01T14:33:56;101987.09;;;9.41;100.00
12247;BME280;6186;52.022;4.692;2023-02-01T14:36:23;101979.22;;;9.40;100.00
12247;BME280;6186;52.022;4.692;2023-02-01T14:38:50;101994.97;;;9.41;100.00
12247;BME280;6186;52.022;4.692;2023-02-01T14:41:30;101983.63;;;9.36;100.00
12247;BME280;6186;52.022;4.692;2023-02-01T14:47:47;102001.13;;;9.40;100.00
12247;BME280;6186;52.022;4.692;2023-02-01T14:49:53;101991.47;;;9.41;100.00
12247;BME280;6186;52.022;4.692;2023-02-01T14:52:23;102005.50;;;9.41;100.00
12247;BME280;6186;52.022;4.692;2023-02-01T14:54:55;102001.09;;;9.45;100.00
12247;BME280;6186;52.022;4.692;2023-02-01T14:57:27;102007.22;;;9.47;100.00
12247;BME280;6186;52.022;4.692;2023-02-01T15:00:00;102001.97;;;9.47;100.00
12247;BME280;6186;52.022;4.692;2023-02-01T15:02:33;102002.84;;;9.44;100.00
12247;BME280;6186;52.022;4.692;2023-02-01T15:05:00;102000.25;;;9.46;100.00
12247;BME280;6186;52.022;4.692;2023-02-01T15:07:27;102009.88;;;9.45;100.00
12247;BME280;6186;52.022;4.692;2023-02-01T15:09:56;102004.63;;;9.45;100.00